Time,TemperatureF,DewpointF,PressureIn,WindDirection,WindDirectionDegrees,WindSpeedMPH,WindSpeedGustMPH,Humidity,HourlyPrecipIn,Conditions,Clouds,dailyrainin,SoftwareType,DateUTC
2013-10-01 00:00:00,49.7,49.4,29.93,North,0,0.0,0.0,100,-99.99,,,-99.99,PWS SA v1.10,2013-10-01 04:00:00,
2013-10-01 00:02:00,49.7,49.4,29.93,North,0,0.0,0.0,100,-99.99,,,-99.99,PWS SA v1.10,2013-10-01 04:02:00,
2013-10-01 00:04:00,49.8,49.7,29.93,North,0,0.0,0.0,100,-99.99,,,-99.99,PWS SA v1.10,2013-10-01 04:04:00,
2013-10-01 00:10:00,49.9,49.6,29.93,North,0,0.0,0.0,99,-99.99,,,-99.99,PWS SA v1.10,2013-10-01 04:10:00,
2013-10-01 00:16:00,49.6,49.3,29.93,North,0,0.0,0.0,99,-99.99,,,-99.99,PWS SA v1.10,2013-10-01 04:16:00,
2013-10-01 00:18:00,49.5,49.1,29.93,North,0,0.0,0.0,99,-99.99,,,-99.99,PWS SA v1.10,2013-10-01 04:18:00,
2013-10-01 00:22:00,49.5,49.1,29.93,North,0,0.0,0.0,99,-99.99,,,-99.99,PWS SA v1.10,2013-10-01 04:22:00,
2013-10-01 00:26:00,49.4,49.0,29.93,North,0,0.0,0.0,99,-99.99,,,-99.99,PWS SA v1.10,2013-10-01 04:26:00,
2013-10-01 00:32:00,49.0,48.6,29.93,North,0,0.0,0.0,99,-99.99,,,-99.99,PWS SA v1.10,2013-10-01 04:32:00,
2013-10-01 00:38:00,48.8,48.4,29.93,North,0,0.0,0.0,99,-99.99,,,-99.99,PWS SA v1.10,2013-10-01 04:38:00,
2013-10-01 00:44:00,48.8,48.5,29.93,North,0,0.0,0.0,100,-99.99,,,-99.99,PWS SA v1.10,2013-10-01 04:44:00,
2013-10-01 00:50:00,48.7,48.4,29.92,North,0,0.0,0.0,100,-99.99,,,-99.99,PWS SA v1.10,2013-10-01 04:50:00,
2013-10-01 00:56:00,48.4,48.0,29.93,North,0,0.0,0.0,100,-99.99,,,-99.99,PWS SA v1.10,2013-10-01 04:56:00,
2013-10-01 01:02:00,48.3,48.1,29.92,North,0,0.0,0.0,100,-99.99,,,-99.99,PWS SA v1.10,2013-10-01 05:02:00,
2013-10-01 01:08:00,48.2,47.9,29.92,North,0,0.0,0.0,100,-99.99,,,-99.99,PWS SA v1.10,2013-10-01 05:08:00,
2013-10-01 01:14:00,48.2,47.9,29.92,North,0,0.0,0.0,100,-99.99,,,-99.99,PWS SA v1.10,2013-10-01 05:14:00,
2013-10-01 01:20:00,48.3,47.9,29.92,North,0,0.0,0.0,100,-99.99,,,-99.99,PWS SA v1.10,2013-10-01 05:20:00,
2013-10-01 01:26:00,48.3,47.8,29.92,North,0,0.0,0.0,100,-99.99,,,-99.99,PWS SA v1.10,2013-10-01 05:26:00,
2013-10-01 01:32:00,48.2,48.1,29.92,North,0,0.0,0.0,100,-99.99,,,-99.99,PWS SA v1.10,2013-10-01 05:32:00,
2013-10-01 01:38:00,48.1,48.1,29.92,North,0,0.0,0.0,100,-99.99,,,-99.99,PWS SA v1.10,2013-10-01 05:38:00,
2013-10-01 01:44:00,48.3,48.1,29.92,North,0,0.0,0.0,100,-99.99,,,-99.99,PWS SA v1.10,2013-10-01 05:44:00,
2013-10-01 01:50:00,48.2,47.8,29.91,North,0,0.0,0.0,99,-99.99,,,-99.99,PWS SA v1.10,2013-10-01 05:50:00,
2013-10-01 01:56:00,48.0,47.9,29.91,North,0,0.0,0.0,99,-99.99,,,-99.99,PWS SA v1.10,2013-10-01 05:56:00,
2013-10-01 02:02:00,48.0,47.7,29.91,North,0,0.0,0.0,100,-99.99,,,-99.99,PWS SA v1.10,2013-10-01 06:02:00,
2013-10-01 02:08:00,47.9,47.6,29.91,North,0,0.0,0.0,100,-99.99,,,-99.99,PWS SA v1.10,2013-10-01 06:08:00,
2013-10-01 02:14:00,47.9,47.5,29.91,North,0,0.0,0.0,100,-99.99,,,-99.99,PWS SA v1.10,2013-10-01 06:14:00,
2013-10-01 02:20:00,48.1,47.7,29.91,North,0,0.0,0.0,100,-99.99,,,-99.99,PWS SA v1.10,2013-10-01 06:20:00,
2013-10-01 02:26:00,48.1,48.0,29.91,North,0,0.0,0.0,100,-99.99,,,-99.99,PWS SA v1.10,2013-10-01 06:26:00,
2013-10-01 02:32:00,48.1,48.0,29.91,North,0,0.0,0.0,100,-99.99,,,-99.99,PWS SA v1.10,2013-10-01 06:32:00,
2013-10-01 02:38:00,48.1,48.3,29.91,North,0,0.0,0.0,100,-99.99,,,-99.99,PWS SA v1.10,2013-10-01 06:38:00,
2013-10-01 02:44:00,48.1,48.2,29.90,North,0,0.0,0.0,100,-99.99,,,-99.99,PWS SA v1.10,2013-10-01 06:44:00,
2013-10-01 02:50:00,47.9,47.6,29.91,North,0,0.0,0.0,100,-99.99,,,-99.99,PWS SA v1.10,2013-10-01 06:50:00,
2013-10-01 02:56:00,47.8,47.4,29.91,North,0,0.0,0.0,100,-99.99,,,-99.99,PWS SA v1.10,2013-10-01 06:56:00,
2013-10-01 03:02:00,47.6,47.7,29.91,North,0,0.0,0.0,100,-99.99,,,-99.99,PWS SA v1.10,2013-10-01 07:02:00,
2013-10-01 03:08:00,47.8,47.7,29.91,North,0,0.0,0.0,100,-99.99,,,-99.99,PWS SA v1.10,2013-10-01 07:08:00,
2013-10-01 03:14:00,47.9,47.6,29.91,North,0,0.0,0.0,99,-99.99,,,-99.99,PWS SA v1.10,2013-10-01 07:14:00,
2013-10-01 03:20:00,47.6,47.4,29.90,North,0,0.0,0.0,99,-99.99,,,-99.99,PWS SA v1.10,2013-10-01 07:20:00,
2013-10-01 03:26:00,48.0,47.8,29.90,North,0,0.0,0.0,99,-99.99,,,-99.99,PWS SA v1.10,2013-10-01 07:26:00,
2013-10-01 03:32:00,47.8,47.4,29.90,North,0,0.0,0.0,99,-99.99,,,-99.99,PWS SA v1.10,2013-10-01 07:32:00,
2013-10-01 03:38:00,47.7,47.5,29.90,North,0,0.0,0.0,99,-99.99,,,-99.99,PWS SA v1.10,2013-10-01 07:38:00,
2013-10-01 03:44:00,47.7,47.8,29.90,North,0,0.0,0.0,99,-99.99,,,-99.99,PWS SA v1.10,2013-10-01 07:44:00,
2013-10-01 03:50:00,47.8,47.7,29.90,North,0,0.0,0.0,99,-99.99,,,-99.99,PWS SA v1.10,2013-10-01 07:50:00,
2013-10-01 03:56:00,48.1,47.9,29.90,North,0,0.0,0.0,99,-99.99,,,-99.99,PWS SA v1.10,2013-10-01 07:56:00,
2013-10-01 04:02:00,48.2,48.0,29.90,North,0,0.0,0.0,99,-99.99,,,-99.99,PWS SA v1.10,2013-10-01 08:02:00,
2013-10-01 04:08:00,48.3,48.0,29.90,North,0,0.0,0.0,99,-99.99,,,-99.99,PWS SA v1.10,2013-10-01 08:08:00,
2013-10-01 04:14:00,48.3,47.8,29.90,North,0,0.0,0.0,99,-99.99,,,-99.99,PWS SA v1.10,2013-10-01 08:14:00,
2013-10-01 04:20:00,48.1,48.0,29.90,North,0,0.0,0.0,100,-99.99,,,-99.99,PWS SA v1.10,2013-10-01 08:20:00,
2013-10-01 04:26:00,48.1,47.9,29.90,North,0,0.0,0.0,100,-99.99,,,-99.99,PWS SA v1.10,2013-10-01 08:26:00,
2013-10-01 04:32:00,48.1,48.1,29.90,North,0,0.0,0.0,100,-99.99,,,-99.99,PWS SA v1.10,2013-10-01 08:32:00,
2013-10-01 04:38:00,48.1,48.1,29.90,North,0,0.0,0.0,100,-99.99,,,-99.99,PWS SA v1.10,2013-10-01 08:38:00,
2013-10-01 04:44:00,48.1,47.8,29.90,North,0,0.0,0.0,100,-99.99,,,-99.99,PWS SA v1.10,2013-10-01 08:44:00,
2013-10-01 04:50:00,48.2,48.2,29.90,North,0,0.0,0.0,100,-99.99,,,-99.99,PWS SA v1.10,2013-10-01 08:50:00,
2013-10-01 04:56:00,48.0,47.8,29.90,North,0,0.0,0.0,100,-99.99,,,-99.99,PWS SA v1.10,2013-10-01 08:56:00,
2013-10-01 05:02:00,48.3,48.1,29.90,North,0,0.0,0.0,100,-99.99,,,-99.99,PWS SA v1.10,2013-10-01 09:02:00,
2013-10-01 05:08:00,48.2,48.1,29.90,North,0,0.0,0.0,100,-99.99,,,-99.99,PWS SA v1.10,2013-10-01 09:08:00,
2013-10-01 05:14:00,48.0,47.9,29.90,North,0,0.0,0.0,100,-99.99,,,-99.99,PWS SA v1.10,2013-10-01 09:14:00,
2013-10-01 05:20:00,48.0,47.9,29.90,North,0,0.0,0.0,100,-99.99,,,-99.99,PWS SA v1.10,2013-10-01 09:20:00,
2013-10-01 05:26:00,47.9,47.6,29.90,North,0,0.0,0.0,100,-99.99,,,-99.99,PWS SA v1.10,2013-10-01 09:26:00,
2013-10-01 05:32:00,47.8,47.6,29.90,North,0,0.0,0.0,100,-99.99,,,-99.99,PWS SA v1.10,2013-10-01 09:32:00,
2013-10-01 05:38:00,47.8,47.5,29.90,North,0,0.0,0.0,100,-99.99,,,-99.99,PWS SA v1.10,2013-10-01 09:38:00,
2013-10-01 05:44:00,47.5,47.2,29.90,North,0,0.0,0.0,100,-99.99,,,-99.99,PWS SA v1.10,2013-10-01 09:44:00,
2013-10-01 05:50:00,47.4,47.1,29.90,North,0,0.0,0.0,100,-99.99,,,-99.99,PWS SA v1.10,2013-10-01 09:50:00,
2013-10-01 05:56:00,47.3,47.2,29.90,North,0,0.0,0.0,100,-99.99,,,-99.99,PWS SA v1.10,2013-10-01 09:56:00,
2013-10-01 06:04:00,47.1,47.0,29.90,North,0,0.0,0.0,100,-99.99,,,-99.99,PWS SA v1.10,2013-10-01 10:04:00,
2013-10-01 06:10:00,47.1,46.9,29.90,North,0,0.0,0.0,100,-99.99,,,-99.99,PWS SA v1.10,2013-10-01 10:10:00,
2013-10-01 06:16:00,47.0,47.0,29.91,North,0,0.0,0.0,100,-99.99,,,-99.99,PWS SA v1.10,2013-10-01 10:16:00,
2013-10-01 06:22:00,47.1,47.0,29.91,North,0,0.0,0.0,100,-99.99,,,-99.99,PWS SA v1.10,2013-10-01 10:22:00,
2013-10-01 06:28:00,46.9,46.8,29.91,North,0,0.0,0.0,100,-99.99,,,-99.99,PWS SA v1.10,2013-10-01 10:28:00,
2013-10-01 06:34:00,46.9,46.7,29.91,North,0,0.0,0.0,100,-99.99,,,-99.99,PWS SA v1.10,2013-10-01 10:34:00,
2013-10-01 06:40:00,46.7,46.7,29.91,North,0,0.0,0.0,100,-99.99,,,-99.99,PWS SA v1.10,2013-10-01 10:40:00,
2013-10-01 06:46:00,46.7,46.5,29.92,North,0,0.0,0.0,100,-99.99,,,-99.99,PWS SA v1.10,2013-10-01 10:46:00,
2013-10-01 06:52:00,46.8,46.6,29.91,North,0,0.0,0.0,100,-99.99,,,-99.99,PWS SA v1.10,2013-10-01 10:52:00,
2013-10-01 06:58:00,46.9,46.9,29.92,North,0,0.0,0.0,100,-99.99,,,-99.99,PWS SA v1.10,2013-10-01 10:58:00,
2013-10-01 07:04:00,46.9,46.9,29.92,North,0,0.0,0.0,100,-99.99,,,-99.99,PWS SA v1.10,2013-10-01 11:04:00,
2013-10-01 07:10:00,47.0,47.0,29.91,North,0,0.0,0.0,100,-99.99,,,-99.99,PWS SA v1.10,2013-10-01 11:10:00,
2013-10-01 07:16:00,47.0,47.0,29.92,North,0,0.0,0.0,100,-99.99,,,-99.99,PWS SA v1.10,2013-10-01 11:16:00,
2013-10-01 07:22:00,46.9,46.7,29.92,North,0,0.0,0.0,100,-99.99,,,-99.99,PWS SA v1.10,2013-10-01 11:22:00,
2013-10-01 07:28:00,47.0,47.0,29.92,North,0,0.0,0.0,100,-99.99,,,-99.99,PWS SA v1.10,2013-10-01 11:28:00,
2013-10-01 07:34:00,47.2,47.2,29.92,North,0,0.0,0.0,100,-99.99,,,-99.99,PWS SA v1.10,2013-10-01 11:34:00,
2013-10-01 07:40:00,47.4,47.4,29.92,North,0,0.0,0.0,100,-99.99,,,-99.99,PWS SA v1.10,2013-10-01 11:40:00,
2013-10-01 07:46:00,47.6,47.6,29.92,North,0,0.0,0.0,100,-99.99,,,-99.99,PWS SA v1.10,2013-10-01 11:46:00,
2013-10-01 07:52:00,47.8,47.6,29.92,North,0,0.0,0.0,100,-99.99,,,-99.99,PWS SA v1.10,2013-10-01 11:52:00,
2013-10-01 07:58:00,47.9,47.6,29.92,North,0,0.0,0.0,100,-99.99,,,-99.99,PWS SA v1.10,2013-10-01 11:58:00,
2013-10-01 08:04:00,48.1,47.8,29.92,North,0,0.0,0.0,100,-99.99,,,-99.99,PWS SA v1.10,2013-10-01 12:04:00,
2013-10-01 08:10:00,48.5,48.1,29.92,North,0,0.0,0.0,100,-99.99,,,-99.99,PWS SA v1.10,2013-10-01 12:10:00,
2013-10-01 08:16:00,48.7,48.4,29.92,North,0,0.0,0.0,100,-99.99,,,-99.99,PWS SA v1.10,2013-10-01 12:16:00,
2013-10-01 08:22:00,49.0,48.5,29.92,North,0,0.0,0.0,100,-99.99,,,-99.99,PWS SA v1.10,2013-10-01 12:22:00,
2013-10-01 08:28:00,49.5,48.9,29.92,North,0,0.0,0.0,100,-99.99,,,-99.99,PWS SA v1.10,2013-10-01 12:28:00,
2013-10-01 08:34:00,49.8,49.4,29.92,North,0,0.0,0.0,100,-99.99,,,-99.99,PWS SA v1.10,2013-10-01 12:34:00,
2013-10-01 08:40:00,50.3,49.8,29.93,North,0,0.0,0.0,100,-99.99,,,-99.99,PWS SA v1.10,2013-10-01 12:40:00,
2013-10-01 08:46:00,50.8,50.4,29.93,North,0,0.0,0.0,100,-99.99,,,-99.99,PWS SA v1.10,2013-10-01 12:46:00,
2013-10-01 08:52:00,51.2,50.9,29.93,North,0,0.0,0.0,100,-99.99,,,-99.99,PWS SA v1.10,2013-10-01 12:52:00,
2013-10-01 08:58:00,52.0,51.5,29.92,North,0,0.0,0.0,100,-99.99,,,-99.99,PWS SA v1.10,2013-10-01 12:58:00,
2013-10-01 09:06:00,52.9,52.3,29.93,North,0,0.0,0.0,100,-99.99,,,-99.99,PWS SA v1.10,2013-10-01 13:06:00,
2013-10-01 09:12:00,53.7,53.1,29.92,North,0,0.0,0.0,100,-99.99,,,-99.99,PWS SA v1.10,2013-10-01 13:12:00,
2013-10-01 09:18:00,54.3,53.9,29.93,North,0,0.0,0.0,100,-99.99,,,-99.99,PWS SA v1.10,2013-10-01 13:18:00,
2013-10-01 09:24:00,55.0,54.6,29.93,North,0,0.0,0.0,100,-99.99,,,-99.99,PWS SA v1.10,2013-10-01 13:24:00,
2013-10-01 09:30:00,55.5,54.8,29.92,North,0,0.0,1.0,99,-99.99,,,-99.99,PWS SA v1.10,2013-10-01 13:30:00,
2013-10-01 09:36:00,56.2,54.5,29.92,North,0,0.0,1.0,96,-99.99,,,-99.99,PWS SA v1.10,2013-10-01 13:36:00,
2013-10-01 09:42:00,56.9,54.9,29.93,North,0,0.0,0.0,94,-99.99,,,-99.99,PWS SA v1.10,2013-10-01 13:42:00,
2013-10-01 09:48:00,57.5,54.7,29.93,North,0,0.0,0.0,92,-99.99,,,-99.99,PWS SA v1.10,2013-10-01 13:48:00,
2013-10-01 09:54:00,58.2,55.3,29.92,North,0,0.0,1.0,92,-99.99,,,-99.99,PWS SA v1.10,2013-10-01 13:54:00,
2013-10-01 10:00:00,58.7,55.4,29.93,North,0,0.0,1.0,91,-99.99,,,-99.99,PWS SA v1.10,2013-10-01 14:00:00,
2013-10-01 10:06:00,59.5,55.2,29.92,North,0,0.0,1.0,87,-99.99,,,-99.99,PWS SA v1.10,2013-10-01 14:06:00,
2013-10-01 10:12:00,60.2,54.9,29.92,North,0,0.0,0.0,85,-99.99,,,-99.99,PWS SA v1.10,2013-10-01 14:12:00,
2013-10-01 10:18:00,60.6,54.8,29.92,North,0,0.0,0.0,83,-99.99,,,-99.99,PWS SA v1.10,2013-10-01 14:18:00,
2013-10-01 10:24:00,61.1,55.3,29.91,North,0,0.0,0.0,83,-99.99,,,-99.99,PWS SA v1.10,2013-10-01 14:24:00,
2013-10-01 10:30:00,61.6,55.0,29.91,North,0,0.0,1.0,79,-99.99,,,-99.99,PWS SA v1.10,2013-10-01 14:30:00,
2013-10-01 10:36:00,62.0,54.6,29.91,North,0,0.0,1.0,78,-99.99,,,-99.99,PWS SA v1.10,2013-10-01 14:36:00,
2013-10-01 10:42:00,62.3,54.9,29.91,North,0,0.0,1.0,78,-99.99,,,-99.99,PWS SA v1.10,2013-10-01 14:42:00,
2013-10-01 10:48:00,62.7,55.1,29.91,North,0,0.0,3.0,78,-99.99,,,-99.99,PWS SA v1.10,2013-10-01 14:48:00,
2013-10-01 10:54:00,63.0,55.5,29.91,North,0,0.0,3.0,78,-99.99,,,-99.99,PWS SA v1.10,2013-10-01 14:54:00,
2013-10-01 11:00:00,63.5,55.8,29.90,North,0,0.0,3.0,78,-99.99,,,-99.99,PWS SA v1.10,2013-10-01 15:00:00,
2013-10-01 11:06:00,64.5,55.4,29.90,North,0,0.0,3.0,74,-99.99,,,-99.99,PWS SA v1.10,2013-10-01 15:06:00,
2013-10-01 11:12:00,64.9,55.3,29.90,North,0,0.0,0.0,72,-99.99,,,-99.99,PWS SA v1.10,2013-10-01 15:12:00,
2013-10-01 11:18:00,65.4,56.2,29.90,North,0,0.0,0.0,74,-99.99,,,-99.99,PWS SA v1.10,2013-10-01 15:18:00,
2013-10-01 11:24:00,65.9,56.2,29.90,North,0,0.0,0.0,73,-99.99,,,-99.99,PWS SA v1.10,2013-10-01 15:24:00,
2013-10-01 11:30:00,66.0,56.4,29.89,SW,223,1.7,1.7,72,-99.99,,,-99.99,PWS SA v1.10,2013-10-01 15:30:00,
2013-10-01 11:36:00,66.7,56.2,29.89,North,0,0.0,1.0,71,-99.99,,,-99.99,PWS SA v1.10,2013-10-01 15:36:00,
2013-10-01 11:42:00,66.8,55.2,29.88,North,0,0.0,3.0,69,-99.99,,,-99.99,PWS SA v1.10,2013-10-01 15:42:00,
2013-10-01 11:48:00,67.8,55.6,29.88,North,0,0.0,3.0,67,-99.99,,,-99.99,PWS SA v1.10,2013-10-01 15:48:00,
2013-10-01 11:54:00,68.0,57.0,29.88,North,0,0.0,0.0,69,-99.99,,,-99.99,PWS SA v1.10,2013-10-01 15:54:00,
2013-10-01 12:00:00,68.8,56.3,29.88,North,0,0.0,0.0,66,-99.99,,,-99.99,PWS SA v1.10,2013-10-01 16:00:00,
2013-10-01 12:06:00,69.4,56.2,29.88,North,0,0.0,1.0,64,-99.99,,,-99.99,PWS SA v1.10,2013-10-01 16:06:00,
2013-10-01 12:12:00,69.8,55.4,29.88,North,0,0.0,5.0,61,-99.99,,,-99.99,PWS SA v1.10,2013-10-01 16:12:00,
2013-10-01 12:18:00,70.1,55.5,29.88,North,0,0.0,5.0,61,-99.99,,,-99.99,PWS SA v1.10,2013-10-01 16:18:00,
2013-10-01 12:24:00,70.4,54.9,29.87,SW,222,1.7,3.0,59,-99.99,,,-99.99,PWS SA v1.10,2013-10-01 16:24:00,
2013-10-01 12:30:00,70.6,54.9,29.87,North,0,0.0,3.0,59,-99.99,,,-99.99,PWS SA v1.10,2013-10-01 16:30:00,
2013-10-01 12:32:00,70.7,55.6,29.87,SW,221,3.4,3.4,60,-99.99,,,-99.99,PWS SA v1.10,2013-10-01 16:32:00,
2013-10-01 12:38:00,71.1,54.7,29.86,North,0,0.0,3.0,58,-99.99,,,-99.99,PWS SA v1.10,2013-10-01 16:38:00,
2013-10-01 12:44:00,71.4,54.4,29.86,North,0,0.0,3.0,57,-99.99,,,-99.99,PWS SA v1.10,2013-10-01 16:44:00,
2013-10-01 12:50:00,71.7,54.6,29.87,North,0,0.0,1.0,56,-99.99,,,-99.99,PWS SA v1.10,2013-10-01 16:50:00,
2013-10-01 12:56:00,71.8,53.0,29.86,SW,223,3.4,3.4,53,-99.99,,,-99.99,PWS SA v1.10,2013-10-01 16:56:00,
2013-10-01 13:02:00,71.6,54.2,29.86,SW,221,3.4,3.4,55,-99.99,,,-99.99,PWS SA v1.10,2013-10-01 17:02:00,
2013-10-01 13:08:00,71.8,53.2,29.85,North,0,0.0,3.0,54,-99.99,,,-99.99,PWS SA v1.10,2013-10-01 17:08:00,
2013-10-01 13:14:00,71.9,54.3,29.85,North,0,0.0,3.0,55,-99.99,,,-99.99,PWS SA v1.10,2013-10-01 17:14:00,
2013-10-01 13:20:00,72.1,53.8,29.85,North,0,0.0,1.0,54,-99.99,,,-99.99,PWS SA v1.10,2013-10-01 17:20:00,
2013-10-01 13:26:00,72.5,53.3,29.84,North,0,0.0,1.0,52,-99.99,,,-99.99,PWS SA v1.10,2013-10-01 17:26:00,
2013-10-01 13:32:00,72.1,52.5,29.84,North,0,0.0,0.0,51,-99.99,,,-99.99,PWS SA v1.10,2013-10-01 17:32:00,
2013-10-01 13:38:00,72.3,52.8,29.84,North,0,0.0,1.0,52,-99.99,,,-99.99,PWS SA v1.10,2013-10-01 17:38:00,
2013-10-01 13:44:00,72.2,52.5,29.84,North,0,0.0,1.0,52,-99.99,,,-99.99,PWS SA v1.10,2013-10-01 17:44:00,
2013-10-01 13:50:00,72.3,53.4,29.84,North,0,0.0,1.0,53,-99.99,,,-99.99,PWS SA v1.10,2013-10-01 17:50:00,
2013-10-01 13:56:00,72.8,52.7,29.84,North,0,0.0,1.0,51,-99.99,,,-99.99,PWS SA v1.10,2013-10-01 17:56:00,
2013-10-01 14:02:00,72.3,52.0,29.83,North,0,0.0,3.0,50,-99.99,,,-99.99,PWS SA v1.10,2013-10-01 18:02:00,
2013-10-01 14:08:00,72.9,54.0,29.83,SW,225,1.7,3.0,53,-99.99,,,-99.99,PWS SA v1.10,2013-10-01 18:08:00,
2013-10-01 14:14:00,73.1,52.9,29.83,North,0,0.0,3.0,51,-99.99,,,-99.99,PWS SA v1.10,2013-10-01 18:14:00,
2013-10-01 14:20:00,73.7,54.1,29.83,NW,306,3.4,3.4,52,-99.99,,,-99.99,PWS SA v1.10,2013-10-01 18:20:00,
2013-10-01 14:26:00,74.0,54.5,29.83,North,0,0.0,3.0,52,-99.99,,,-99.99,PWS SA v1.10,2013-10-01 18:26:00,
2013-10-01 14:32:00,74.0,54.1,29.83,North,0,0.0,3.0,51,-99.99,,,-99.99,PWS SA v1.10,2013-10-01 18:32:00,
2013-10-01 14:40:00,74.8,55.8,29.83,North,0,0.0,3.0,53,-99.99,,,-99.99,PWS SA v1.10,2013-10-01 18:40:00,
2013-10-01 14:46:00,75.4,55.2,29.82,North,0,0.0,3.0,51,-99.99,,,-99.99,PWS SA v1.10,2013-10-01 18:46:00,
2013-10-01 14:52:00,75.8,56.0,29.82,North,0,0.0,3.0,52,-99.99,,,-99.99,PWS SA v1.10,2013-10-01 18:52:00,
2013-10-01 14:58:00,76.0,54.7,29.82,North,0,0.0,3.0,48,-99.99,,,-99.99,PWS SA v1.10,2013-10-01 18:58:00,
2013-10-01 15:04:00,76.1,55.3,29.82,North,0,0.0,1.0,50,-99.99,,,-99.99,PWS SA v1.10,2013-10-01 19:04:00,
2013-10-01 15:10:00,77.6,55.9,29.82,North,0,0.0,1.0,49,-99.99,,,-99.99,PWS SA v1.10,2013-10-01 19:10:00,
2013-10-01 15:16:00,78.5,56.2,29.82,North,0,0.0,1.0,48,-99.99,,,-99.99,PWS SA v1.10,2013-10-01 19:16:00,
2013-10-01 15:22:00,79.3,55.6,29.81,SE,136,1.7,1.7,46,-99.99,,,-99.99,PWS SA v1.10,2013-10-01 19:22:00,
2013-10-01 15:28:00,79.1,54.3,29.81,North,0,0.0,1.0,43,-99.99,,,-99.99,PWS SA v1.10,2013-10-01 19:28:00,
2013-10-01 15:34:00,79.8,55.8,29.81,North,0,0.0,1.0,45,-99.99,,,-99.99,PWS SA v1.10,2013-10-01 19:34:00,
2013-10-01 15:40:00,78.7,55.5,29.81,SW,219,3.4,3.4,46,-99.99,,,-99.99,PWS SA v1.10,2013-10-01 19:40:00,
2013-10-01 15:46:00,77.5,53.9,29.80,North,0,0.0,3.0,45,-99.99,,,-99.99,PWS SA v1.10,2013-10-01 19:46:00,
2013-10-01 15:52:00,76.5,55.1,29.81,North,0,0.0,3.0,49,-99.99,,,-99.99,PWS SA v1.10,2013-10-01 19:52:00,
2013-10-01 15:58:00,75.9,54.9,29.81,North,0,0.0,3.0,49,-99.99,,,-99.99,PWS SA v1.10,2013-10-01 19:58:00,
2013-10-01 16:04:00,75.5,54.1,29.81,North,0,0.0,1.0,49,-99.99,,,-99.99,PWS SA v1.10,2013-10-01 20:04:00,
2013-10-01 16:10:00,74.6,56.2,29.80,North,0,0.0,0.0,54,-99.99,,,-99.99,PWS SA v1.10,2013-10-01 20:10:00,
2013-10-01 16:16:00,74.1,54.9,29.81,North,0,0.0,0.0,52,-99.99,,,-99.99,PWS SA v1.10,2013-10-01 20:16:00,
2013-10-01 16:22:00,73.6,55.9,29.81,North,0,0.0,0.0,55,-99.99,,,-99.99,PWS SA v1.10,2013-10-01 20:22:00,
2013-10-01 16:28:00,72.9,57.0,29.81,WNW,287,1.7,1.7,59,-99.99,,,-99.99,PWS SA v1.10,2013-10-01 20:28:00,
2013-10-01 16:34:00,72.8,55.2,29.81,North,0,0.0,1.0,55,-99.99,,,-99.99,PWS SA v1.10,2013-10-01 20:34:00,
2013-10-01 16:40:00,73.1,54.5,29.81,North,0,0.0,3.0,54,-99.99,,,-99.99,PWS SA v1.10,2013-10-01 20:40:00,
2013-10-01 16:46:00,72.7,55.4,29.81,North,0,0.0,3.0,56,-99.99,,,-99.99,PWS SA v1.10,2013-10-01 20:46:00,
2013-10-01 16:52:00,71.8,56.8,29.81,North,0,0.0,3.0,61,-99.99,,,-99.99,PWS SA v1.10,2013-10-01 20:52:00,
2013-10-01 16:58:00,71.3,56.8,29.81,North,0,0.0,0.0,62,-99.99,,,-99.99,PWS SA v1.10,2013-10-01 20:58:00,
2013-10-01 17:04:00,70.9,56.9,29.81,North,0,0.0,0.0,63,-99.99,,,-99.99,PWS SA v1.10,2013-10-01 21:04:00,
2013-10-01 17:10:00,70.3,58.3,29.82,North,0,0.0,0.0,67,-99.99,,,-99.99,PWS SA v1.10,2013-10-01 21:10:00,
2013-10-01 17:16:00,69.8,58.1,29.81,North,0,0.0,0.0,68,-99.99,,,-99.99,PWS SA v1.10,2013-10-01 21:16:00,
2013-10-01 17:22:00,69.4,57.8,29.81,North,0,0.0,0.0,68,-99.99,,,-99.99,PWS SA v1.10,2013-10-01 21:22:00,
2013-10-01 17:28:00,69.1,58.2,29.81,North,0,0.0,0.0,71,-99.99,,,-99.99,PWS SA v1.10,2013-10-01 21:28:00,
2013-10-01 17:34:00,68.4,58.6,29.81,North,0,0.0,0.0,72,-99.99,,,-99.99,PWS SA v1.10,2013-10-01 21:34:00,
2013-10-01 17:40:00,67.9,58.8,29.81,North,0,0.0,0.0,74,-99.99,,,-99.99,PWS SA v1.10,2013-10-01 21:40:00,
2013-10-01 17:46:00,67.6,58.3,29.81,North,0,0.0,0.0,74,-99.99,,,-99.99,PWS SA v1.10,2013-10-01 21:46:00,
2013-10-01 17:52:00,67.3,58.1,29.82,North,0,0.0,0.0,74,-99.99,,,-99.99,PWS SA v1.10,2013-10-01 21:52:00,
2013-10-01 17:58:00,66.8,58.2,29.81,North,0,0.0,0.0,76,-99.99,,,-99.99,PWS SA v1.10,2013-10-01 21:58:00,
2013-10-01 18:04:00,66.5,58.1,29.81,North,0,0.0,0.0,76,-99.99,,,-99.99,PWS SA v1.10,2013-10-01 22:04:00,
2013-10-01 18:10:00,66.0,58.0,29.82,North,0,0.0,0.0,77,-99.99,,,-99.99,PWS SA v1.10,2013-10-01 22:10:00,
2013-10-01 18:16:00,65.6,57.9,29.82,North,0,0.0,0.0,78,-99.99,,,-99.99,PWS SA v1.10,2013-10-01 22:16:00,
2013-10-01 18:22:00,65.3,58.0,29.82,North,0,0.0,0.0,79,-99.99,,,-99.99,PWS SA v1.10,2013-10-01 22:22:00,
2013-10-01 18:28:00,64.7,57.5,29.82,North,0,0.0,0.0,79,-99.99,,,-99.99,PWS SA v1.10,2013-10-01 22:28:00,
2013-10-01 18:34:00,64.5,57.2,29.83,North,0,0.0,0.0,79,-99.99,,,-99.99,PWS SA v1.10,2013-10-01 22:34:00,
2013-10-01 18:40:00,64.3,57.2,29.83,North,0,0.0,0.0,80,-99.99,,,-99.99,PWS SA v1.10,2013-10-01 22:40:00,
2013-10-01 18:46:00,64.0,57.6,29.83,North,0,0.0,0.0,82,-99.99,,,-99.99,PWS SA v1.10,2013-10-01 22:46:00,
2013-10-01 18:52:00,63.7,57.3,29.83,North,0,0.0,0.0,81,-99.99,,,-99.99,PWS SA v1.10,2013-10-01 22:52:00,
2013-10-01 18:58:00,63.2,57.0,29.83,North,0,0.0,0.0,82,-99.99,,,-99.99,PWS SA v1.10,2013-10-01 22:58:00,
2013-10-01 19:04:00,63.1,57.2,29.83,North,0,0.0,0.0,83,-99.99,,,-99.99,PWS SA v1.10,2013-10-01 23:04:00,
2013-10-01 19:10:00,62.9,57.2,29.83,North,0,0.0,0.0,83,-99.99,,,-99.99,PWS SA v1.10,2013-10-01 23:10:00,
2013-10-01 19:16:00,62.7,57.4,29.84,North,0,0.0,0.0,85,-99.99,,,-99.99,PWS SA v1.10,2013-10-01 23:16:00,
2013-10-01 19:22:00,62.4,57.5,29.83,North,0,0.0,0.0,86,-99.99,,,-99.99,PWS SA v1.10,2013-10-01 23:22:00,
2013-10-01 19:28:00,62.2,57.9,29.84,North,0,0.0,0.0,87,-99.99,,,-99.99,PWS SA v1.10,2013-10-01 23:28:00,
2013-10-01 19:34:00,62.0,57.8,29.84,North,0,0.0,0.0,88,-99.99,,,-99.99,PWS SA v1.10,2013-10-01 23:34:00,
2013-10-01 19:40:00,61.6,57.6,29.84,North,0,0.0,0.0,88,-99.99,,,-99.99,PWS SA v1.10,2013-10-01 23:40:00,
2013-10-01 19:46:00,61.6,57.6,29.83,North,0,0.0,0.0,88,-99.99,,,-99.99,PWS SA v1.10,2013-10-01 23:46:00,
2013-10-01 19:52:00,61.4,57.6,29.84,North,0,0.0,0.0,89,-99.99,,,-99.99,PWS SA v1.10,2013-10-01 23:52:00,
2013-10-01 19:58:00,61.3,57.6,29.84,North,0,0.0,0.0,89,-99.99,,,-99.99,PWS SA v1.10,2013-10-01 23:58:00,
2013-10-01 20:04:00,61.4,57.4,29.85,North,0,0.0,0.0,89,-99.99,,,-99.99,PWS SA v1.10,2013-10-02 00:04:00,
2013-10-01 20:10:00,61.5,57.6,29.85,North,0,0.0,0.0,88,-99.99,,,-99.99,PWS SA v1.10,2013-10-02 00:10:00,
2013-10-01 20:16:00,61.3,57.3,29.84,North,0,0.0,0.0,88,-99.99,,,-99.99,PWS SA v1.10,2013-10-02 00:16:00,
2013-10-01 20:22:00,61.3,57.5,29.84,North,0,0.0,0.0,89,-99.99,,,-99.99,PWS SA v1.10,2013-10-02 00:22:00,
2013-10-01 20:28:00,61.3,57.6,29.84,North,0,0.0,0.0,89,-99.99,,,-99.99,PWS SA v1.10,2013-10-02 00:28:00,
2013-10-01 20:34:00,61.3,57.7,29.85,North,0,0.0,0.0,89,-99.99,,,-99.99,PWS SA v1.10,2013-10-02 00:34:00,
2013-10-01 20:40:00,61.0,57.7,29.85,North,0,0.0,0.0,90,-99.99,,,-99.99,PWS SA v1.10,2013-10-02 00:40:00,
2013-10-01 20:42:00,60.9,57.8,29.85,North,0,0.0,0.0,90,-99.99,,,-99.99,PWS SA v1.10,2013-10-02 00:42:00,
2013-10-01 20:48:00,60.8,57.7,29.85,North,0,0.0,0.0,91,-99.99,,,-99.99,PWS SA v1.10,2013-10-02 00:48:00,
2013-10-01 20:54:00,60.4,57.6,29.85,North,0,0.0,0.0,92,-99.99,,,-99.99,PWS SA v1.10,2013-10-02 00:54:00,
2013-10-01 21:00:00,60.4,57.5,29.85,North,0,0.0,0.0,92,-99.99,,,-99.99,PWS SA v1.10,2013-10-02 01:00:00,
2013-10-01 21:06:00,60.2,57.5,29.85,North,0,0.0,0.0,92,-99.99,,,-99.99,PWS SA v1.10,2013-10-02 01:06:00,
2013-10-01 21:12:00,60.0,57.1,29.86,North,0,0.0,0.0,92,-99.99,,,-99.99,PWS SA v1.10,2013-10-02 01:12:00,
2013-10-01 21:18:00,60.0,57.0,29.85,North,0,0.0,0.0,92,-99.99,,,-99.99,PWS SA v1.10,2013-10-02 01:18:00,
2013-10-01 21:24:00,60.1,57.4,29.85,North,0,0.0,0.0,92,-99.99,,,-99.99,PWS SA v1.10,2013-10-02 01:24:00,
2013-10-01 21:30:00,59.9,57.3,29.86,North,0,0.0,0.0,92,-99.99,,,-99.99,PWS SA v1.10,2013-10-02 01:30:00,
2013-10-01 21:36:00,59.7,57.2,29.85,North,0,0.0,0.0,92,-99.99,,,-99.99,PWS SA v1.10,2013-10-02 01:36:00,
2013-10-01 21:42:00,59.7,57.1,29.85,North,0,0.0,0.0,92,-99.99,,,-99.99,PWS SA v1.10,2013-10-02 01:42:00,
2013-10-01 21:48:00,59.8,56.9,29.85,North,0,0.0,0.0,91,-99.99,,,-99.99,PWS SA v1.10,2013-10-02 01:48:00,
2013-10-01 21:54:00,59.7,56.7,29.85,North,0,0.0,0.0,91,-99.99,,,-99.99,PWS SA v1.10,2013-10-02 01:54:00,
2013-10-01 22:00:00,59.6,56.6,29.85,North,0,0.0,0.0,90,-99.99,,,-99.99,PWS SA v1.10,2013-10-02 02:00:00,
2013-10-01 22:06:00,59.5,56.2,29.85,North,0,0.0,0.0,90,-99.99,,,-99.99,PWS SA v1.10,2013-10-02 02:06:00,
2013-10-01 22:12:00,59.6,56.5,29.86,North,0,0.0,0.0,90,-99.99,,,-99.99,PWS SA v1.10,2013-10-02 02:12:00,
2013-10-01 22:18:00,59.5,56.1,29.86,North,0,0.0,0.0,90,-99.99,,,-99.99,PWS SA v1.10,2013-10-02 02:18:00,
2013-10-01 22:24:00,59.4,56.2,29.86,North,0,0.0,0.0,90,-99.99,,,-99.99,PWS SA v1.10,2013-10-02 02:24:00,
2013-10-01 22:30:00,59.2,56.0,29.85,North,0,0.0,0.0,90,-99.99,,,-99.99,PWS SA v1.10,2013-10-02 02:30:00,
2013-10-01 22:36:00,59.1,55.9,29.85,North,0,0.0,0.0,91,-99.99,,,-99.99,PWS SA v1.10,2013-10-02 02:36:00,
2013-10-01 22:42:00,59.0,56.1,29.85,North,0,0.0,0.0,91,-99.99,,,-99.99,PWS SA v1.10,2013-10-02 02:42:00,
2013-10-01 22:48:00,59.0,56.2,29.85,North,0,0.0,0.0,91,-99.99,,,-99.99,PWS SA v1.10,2013-10-02 02:48:00,
2013-10-01 22:54:00,58.8,56.0,29.85,North,0,0.0,0.0,91,-99.99,,,-99.99,PWS SA v1.10,2013-10-02 02:54:00,
2013-10-01 23:00:00,58.6,55.9,29.85,North,0,0.0,0.0,92,-99.99,,,-99.99,PWS SA v1.10,2013-10-02 03:00:00,
2013-10-01 23:06:00,58.5,56.1,29.85,North,0,0.0,0.0,92,-99.99,,,-99.99,PWS SA v1.10,2013-10-02 03:06:00,
2013-10-01 23:12:00,58.2,55.7,29.85,North,0,0.0,0.0,93,-99.99,,,-99.99,PWS SA v1.10,2013-10-02 03:12:00,
2013-10-01 23:18:00,57.9,55.6,29.85,North,0,0.0,0.0,93,-99.99,,,-99.99,PWS SA v1.10,2013-10-02 03:18:00,
2013-10-01 23:24:00,57.9,55.6,29.85,North,0,0.0,0.0,93,-99.99,,,-99.99,PWS SA v1.10,2013-10-02 03:24:00,
2013-10-01 23:30:00,57.8,55.7,29.85,North,0,0.0,0.0,94,-99.99,,,-99.99,PWS SA v1.10,2013-10-02 03:30:00,
2013-10-01 23:36:00,57.7,55.8,29.84,North,0,0.0,0.0,94,-99.99,,,-99.99,PWS SA v1.10,2013-10-02 03:36:00,
2013-10-01 23:42:00,57.7,55.7,29.84,North,0,0.0,0.0,95,-99.99,,,-99.99,PWS SA v1.10,2013-10-02 03:42:00,
2013-10-01 23:48:00,57.5,55.7,29.84,North,0,0.0,0.0,95,-99.99,,,-99.99,PWS SA v1.10,2013-10-02 03:48:00,
2013-10-01 23:54:00,57.5,55.9,29.84,North,0,0.0,0.0,95,-99.99,,,-99.99,PWS SA v1.10,2013-10-02 03:54:00,